Time;durP1;ratioP1;P1;durP2;ratioP2;P2;SDS_P1;SDS_P2;PMS_P1;PMS_P2;Temp;Humidity;BMP_temperature;BMP_pressure;BME280_temperature;BME280_humidity;BME280_pressure;Samples;Min_cycle;Max_cycle;Signal;HPM_P1;HPM_P2
2022/06/13 00:02:02;;;;;;;14.65;9.18;;;;;;;18.75;80.68;101193.47;4939352;28;20062;-85
2022/06/13 00:04:28;;;;;;;16.05;8.75;;;;;;;18.56;80.66;101165.97;4987582;28;20030;-85
2022/06/13 00:06:53;;;;;;;17.42;9.57;;;;;;;18.72;81.17;101204.19;4971301;28;20031;-84
2022/06/13 00:09:19;;;;;;;16.38;9.40;;;;;;;18.63;81.02;101180.28;4955243;28;20027;-85
2022/06/13 00:11:44;;;;;;;16.05;9.65;;;;;;;18.60;81.42;101185.75;4971348;28;20031;-84
2022/06/13 00:14:10;;;;;;;12.45;8.43;;;;;;;18.72;80.32;101196.31;4971901;28;20066;-85
2022/06/13 00:16:36;;;;;;;14.50;8.50;;;;;;;18.69;80.48;101189.53;4970467;28;20035;-84
2022/06/13 00:19:01;;;;;;;19.60;9.48;;;;;;;18.67;80.72;101193.19;4987132;28;20491;-84
2022/06/13 00:21:31;;;;;;;14.65;9.30;;;;;;;18.58;80.85;101184.19;4955425;28;20455;-85
2022/06/13 00:23:57;;;;;;;14.80;8.75;;;;;;;18.53;81.53;101195.00;4955064;28;20034;-85
2022/06/13 00:26:24;;;;;;;15.45;9.32;;;;;;;18.62;81.12;101204.00;4970812;28;20085;-85
2022/06/13 00:28:50;;;;;;;13.50;8.80;;;;;;;18.58;81.21;101197.28;4970587;28;20495;-85
2022/06/13 00:31:16;;;;;;;14.90;8.85;;;;;;;18.60;80.76;101192.78;4987222;28;20130;-84
2022/06/13 00:33:41;;;;;;;16.10;9.25;;;;;;;18.56;81.73;101189.53;4970931;28;20110;-84
2022/06/13 00:36:07;;;;;;;16.90;9.35;;;;;;;18.56;81.55;101184.31;4970817;28;20503;-83
2022/06/13 00:38:32;;;;;;;13.93;8.90;;;;;;;18.53;81.00;101188.94;4970869;28;20031;-84
2022/06/13 00:40:58;;;;;;;12.80;9.07;;;;;;;18.53;81.17;101176.69;4970727;28;20174;-84
2022/06/13 00:43:23;;;;;;;14.80;8.90;;;;;;;18.62;81.42;101181.25;4970554;28;20026;-85
2022/06/13 00:45:49;;;;;;;16.85;9.27;;;;;;;18.55;81.35;101177.38;4970911;28;20054;-85
2022/06/13 00:48:15;;;;;;;15.85;8.20;;;;;;;18.62;81.52;101185.66;4970942;28;20035;-85
2022/06/13 00:50:45;;;;;;;13.40;8.00;;;;;;;18.67;81.13;101191.41;4987020;28;20038;-85
2022/06/13 00:53:14;;;;;;;15.75;8.90;;;;;;;18.68;81.11;101200.09;4970708;28;20411;-85
2022/06/13 00:55:46;;;;;;;16.58;8.65;;;;;;;18.61;80.76;101182.19;4970830;28;20038;-84
2022/06/13 00:58:12;;;;;;;14.30;8.30;;;;;;;18.60;80.80;101175.28;4986536;28;20483;-84
2022/06/13 01:00:38;;;;;;;12.82;8.30;;;;;;;18.65;80.92;101192.47;4986938;28;20031;-84
2022/06/13 01:03:03;;;;;;;15.70;8.80;;;;;;;18.55;80.81;101185.25;4970643;28;20491;-85
2022/06/13 01:05:30;;;;;;;12.60;8.13;;;;;;;18.53;80.66;101192.41;4970717;28;20491;-84
2022/06/13 01:07:56;;;;;;;16.33;8.68;;;;;;;18.59;80.55;101197.19;4970649;28;20044;-84
2022/06/13 01:13:07;;;;;;;17.55;8.48;;;;;;;18.52;80.23;101193.34;4984264;28;20042;-83
2022/06/13 01:16:04;;;;;;;17.40;9.73;;;;;;;18.56;81.11;101193.94;4986654;28;20039;-84
2022/06/13 01:18:58;;;;;;;26.23;15.23;;;;;;;18.49;80.22;101196.19;4970537;28;20023;-84
2022/06/13 01:21:33;;;;;;;19.65;10.60;;;;;;;18.47;81.10;101195.44;4970432;28;20507;-84
2022/06/13 01:24:13;;;;;;;25.17;13.77;;;;;;;18.52;81.69;101192.50;4970717;28;20034;-84
2022/06/13 01:26:44;;;;;;;25.60;15.45;;;;;;;18.55;81.07;101190.50;4970535;28;20027;-85
2022/06/13 01:29:16;;;;;;;17.05;10.80;;;;;;;18.52;81.34;101195.13;4974772;28;20037;-84
2022/06/13 01:31:44;;;;;;;17.75;10.55;;;;;;;18.52;81.15;101193.34;4975634;28;20090;-84
2022/06/13 01:34:25;;;;;;;16.95;10.25;;;;;;;18.37;80.89;101176.13;4975293;28;20069;-84
2022/06/13 01:37:38;;;;;;;18.48;9.48;;;;;;;18.54;80.62;101195.84;4958719;28;20031;-84
2022/06/13 01:40:10;;;;;;;18.20;9.43;;;;;;;18.43;80.41;101178.28;4969306;28;20038;-84
2022/06/13 01:43:07;;;;;;;18.37;8.97;;;;;;;18.20;80.08;101150.34;4975204;28;20035;-85
2022/06/13 01:45:48;;;;;;;18.83;9.80;;;;;;;18.28;81.10;101180.22;4970030;28;20039;-85
2022/06/13 01:48:26;;;;;;;17.17;11.50;;;;;;;18.29;81.99;101179.31;4973733;28;20436;-84
2022/06/13 01:51:08;;;;;;;23.10;10.85;;;;;;;18.32;81.59;101178.25;4975314;28;20057;-84
2022/06/13 01:54:29;;;;;;;16.42;10.68;;;;;;;18.31;81.74;101177.41;4974070;28;20031;-84
2022/06/13 01:57:28;;;;;;;20.08;10.45;;;;;;;18.21;81.14;101168.56;4951821;28;20423;-84
2022/06/13 01:59:59;;;;;;;21.63;11.65;;;;;;;18.20;81.51;101159.03;4974773;28;20030;-84
2022/06/13 02:02:40;;;;;;;13.05;9.40;;;;;;;18.31;81.18;101185.28;4957562;28;20027;-84
2022/06/13 02:05:12;;;;;;;15.23;9.05;;;;;;;18.22;81.25;101169.38;4974798;28;20019;-84
2022/06/13 02:07:41;;;;;;;15.95;9.48;;;;;;;18.15;81.57;101161.13;4989534;28;20415;-85
2022/06/13 02:10:10;;;;;;;20.73;9.50;;;;;;;18.23;81.48;101160.56;4989369;28;20424;-85
2022/06/13 02:12:36;;;;;;;17.00;8.88;;;;;;;18.29;81.24;101163.59;4973357;28;20031;-85
2022/06/13 02:15:08;;;;;;;14.77;8.77;;;;;;;18.27;81.21;101164.63;4989648;28;20062;-84
2022/06/13 02:17:38;;;;;;;18.85;9.57;;;;;;;18.23;81.52;101153.56;4973659;28;20487;-85
2022/06/13 02:20:13;;;;;;;28.58;12.77;;;;;;;18.26;81.01;101163.78;4989240;28;20061;-84
2022/06/13 02:22:53;;;;;;;31.00;15.27;;;;;;;18.27;80.90;101169.88;4941881;28;20166;-85
2022/06/13 02:25:45;;;;;;;37.95;16.98;;;;;;;18.27;81.14;101169.88;4956874;28;20033;-84
2022/06/13 02:28:23;;;;;;;35.42;19.83;;;;;;;18.32;81.54;101165.16;4958561;28;20450;-84
2022/06/13 02:30:56;;;;;;;35.92;19.20;;;;;;;18.24;81.52;101160.47;4974018;28;20062;-84
2022/06/13 02:33:31;;;;;;;31.73;14.88;;;;;;;18.29;81.47;101162.75;4957701;28;20506;-85
2022/06/13 02:36:05;;;;;;;25.75;14.38;;;;;;;18.25;81.08;101163.91;4941147;28;20035;-85
2022/06/13 02:38:39;;;;;;;21.85;12.15;;;;;;;18.00;81.19;101129.03;4940856;28;20384;-84
2022/06/13 02:41:07;;;;;;;17.42;10.88;;;;;;;18.24;81.14;101162.25;4957168;28;20491;-84
2022/06/13 02:43:39;;;;;;;16.95;10.52;;;;;;;18.27;81.26;101175.09;4956890;28;20034;-84
2022/06/13 02:46:09;;;;;;;18.83;10.80;;;;;;;18.20;80.56;101176.53;4957345;28;20054;-84
2022/06/13 02:48:49;;;;;;;19.38;11.63;;;;;;;18.12;80.22;101165.75;4973006;28;20033;-83
2022/06/13 02:51:32;;;;;;;24.80;15.75;;;;;;;18.20;80.47;101173.91;4957059;28;20065;-84
2022/06/13 02:54:03;;;;;;;;;;;;;;;18.17;80.20;101181.97;4957912;28;20110;-83
2022/06/13 02:57:23;;;;;;;22.42;15.77;;;;;;;18.15;80.44;101182.06;4956556;28;19914;-84
2022/06/13 02:59:43;;;;;;;26.65;14.38;;;;;;;18.25;79.90;101184.88;4972181;28;20214;-84
2022/06/13 03:02:09;;;;;;;18.63;11.50;;;;;;;18.29;79.72;101186.34;4972355;28;20029;-83
2022/06/13 03:04:42;;;;;;;20.50;12.48;;;;;;;18.33;79.92;101198.25;4956259;28;20431;-84
2022/06/13 03:07:20;;;;;;;21.38;12.18;;;;;;;18.36;80.37;101192.78;4972225;28;20085;-83
2022/06/13 03:10:22;;;;;;;21.73;12.45;;;;;;;18.31;80.79;101184.44;4955862;28;20085;-84
2022/06/13 03:13:05;;;;;;;20.83;11.82;;;;;;;18.33;80.53;101193.00;4935870;29;20027;-84
2022/06/13 03:15:48;;;;;;;17.80;11.10;;;;;;;18.42;80.31;101197.59;4953574;28;20113;-84
2022/06/13 03:18:27;;;;;;;20.60;11.30;;;;;;;18.40;80.48;101198.66;4956362;28;20022;-83
2022/06/13 03:20:55;;;;;;;19.17;12.07;;;;;;;18.25;80.66;101162.13;4956091;28;20058;-84
2022/06/13 03:23:53;;;;;;;15.85;10.45;;;;;;;18.37;80.68;101194.44;4973035;28;20503;-83
2022/06/13 03:26:28;;;;;;;16.92;10.65;;;;;;;18.43;80.52;101194.00;4972172;28;20111;-84
2022/06/13 03:28:59;;;;;;;18.45;11.27;;;;;;;18.42;80.55;101197.59;4940200;28;20117;-84
2022/06/13 03:31:31;;;;;;;17.92;11.00;;;;;;;18.40;80.55;101182.94;4972095;28;20062;-84
2022/06/13 03:33:59;;;;;;;15.35;10.02;;;;;;;18.44;80.53;101194.84;4956958;28;20031;-83
2022/06/13 03:36:38;;;;;;;17.20;10.13;;;;;;;18.49;80.76;101198.81;4955997;28;20031;-84
2022/06/13 03:39:17;;;;;;;16.20;10.23;;;;;;;18.52;80.90;101192.50;4955535;28;20026;-84
2022/06/13 03:41:54;;;;;;;15.88;9.75;;;;;;;18.41;80.90;101168.88;4969524;28;20078;-84
2022/06/13 03:44:25;;;;;;;17.10;9.32;;;;;;;18.57;80.83;101187.75;4971236;28;20046;-83
2022/06/13 03:46:58;;;;;;;14.97;8.87;;;;;;;18.59;80.28;101164.91;4971630;28;20097;-84
2022/06/13 03:49:24;;;;;;;;;;;;;;;18.60;80.21;101185.75;4972273;28;20031;-84
2022/06/13 03:51:52;;;;;;;16.45;9.50;;;;;;;18.44;80.61;101187.00;4955023;28;19918;-89
2022/06/13 03:54:22;;;;;;;16.10;8.65;;;;;;;18.49;80.87;101180.47;4955474;28;20407;-86
2022/06/13 03:57:01;;;;;;;13.98;9.30;;;;;;;18.63;80.84;101182.91;4970823;28;20023;-86
2022/06/13 03:59:48;;;;;;;14.63;8.80;;;;;;;18.66;80.13;101183.66;4971196;28;20039;-85
2022/06/13 04:02:15;;;;;;;11.88;7.25;;;;;;;19.22;77.38;101187.28;4987423;28;20122;-85
2022/06/13 04:04:45;;;;;;;11.05;6.80;;;;;;;19.72;74.93;101164.19;4955437;28;20038;-84
2022/06/13 04:07:11;;;;;;;10.55;7.05;;;;;;;19.83;74.61;101181.69;4954314;28;20042;-84
2022/06/13 04:09:45;;;;;;;11.75;7.50;;;;;;;19.70;74.95;101177.44;4955289;28;20030;-87
2022/06/13 04:12:48;;;;;;;12.00;7.28;;;;;;;19.73;75.42;101187.69;4971099;28;20103;-86
2022/06/13 04:15:29;;;;;;;;;;;;;;;19.99;74.39;101195.31;4972007;28;20031;-85
2022/06/13 04:18:00;;;;;;;14.95;9.80;;;;;;;20.35;72.31;101178.34;4970961;28;19921;-86
2022/06/13 04:21:16;;;;;;;15.23;10.73;;;;;;;20.84;70.87;101190.13;4971869;28;20090;-87
2022/06/13 04:24:09;;;;;;;20.33;12.43;;;;;;;20.68;71.89;101195.00;4950768;28;20051;-84
2022/06/13 04:26:45;;;;;;;24.40;16.58;;;;;;;20.29;73.44;101178.88;4969384;28;20582;-84
2022/06/13 04:29:16;;;;;;;31.27;20.83;;;;;;;20.39;73.55;101189.47;4954230;28;20034;-84
2022/06/13 04:31:41;;;;;;;52.55;32.67;;;;;;;20.61;72.41;101184.97;4971604;28;20456;-84
2022/06/13 04:34:11;;;;;;;25.70;18.33;;;;;;;20.95;71.42;101197.16;4954288;28;20031;-87
2022/06/13 04:36:36;;;;;;;25.70;19.25;;;;;;;20.68;72.34;101168.72;4967036;28;20023;-86
2022/06/13 04:39:05;;;;;;;25.50;15.60;;;;;;;20.81;72.07;101190.38;4967758;28;20038;-84
2022/06/13 04:41:32;;;;;;;21.83;12.27;;;;;;;20.88;72.02;101192.38;4950641;29;20061;-85
2022/06/13 04:43:59;;;;;;;19.67;14.05;;;;;;;21.04;71.80;101196.34;4938057;28;20133;-84
2022/06/13 04:46:26;;;;;;;17.85;13.75;;;;;;;21.04;71.72;101202.47;4954826;28;20054;-84
2022/06/13 04:48:52;;;;;;;20.40;13.38;;;;;;;21.14;71.15;101198.09;4970512;28;20034;-85
2022/06/13 04:51:41;;;;;;;26.50;17.13;;;;;;;21.32;70.85;101214.16;4937641;28;20031;-90
2022/06/13 04:54:23;;;;;;;19.40;14.20;;;;;;;21.34;70.59;101193.81;4947024;28;20118;-82
2022/06/13 04:56:48;;;;;;;20.20;11.50;;;;;;;21.48;70.26;101211.88;4970334;28;20031;-85
2022/06/13 04:59:14;;;;;;;15.80;10.05;;;;;;;21.40;70.58;101209.06;4937899;28;20023;-86
2022/06/13 05:01:47;;;;;;;22.83;14.85;;;;;;;21.15;71.33;101197.16;4953266;28;20061;-92
2022/06/13 05:04:14;;;;;;;20.90;14.43;;;;;;;21.25;71.41;101189.31;4973190;28;20041;-86
2022/06/13 05:06:43;;;;;;;24.02;12.52;;;;;;;21.43;71.08;101200.06;4954562;28;20042;-83
2022/06/13 05:09:08;;;;;;;17.63;11.20;;;;;;;21.54;70.64;101209.72;4974232;28;20038;-89
2022/06/13 05:11:40;;;;;;;14.45;10.43;;;;;;;21.36;71.33;101191.88;4971783;28;20041;-87
2022/06/13 05:14:11;;;;;;;14.20;9.60;;;;;;;21.25;72.21;101194.56;4974530;28;20035;-88
2022/06/13 05:16:49;;;;;;;13.85;8.57;;;;;;;21.22;72.05;101197.44;4974464;28;20037;-90
2022/06/13 05:19:26;;;;;;;14.35;9.38;;;;;;;21.23;72.43;101191.22;4974007;28;20047;-89
2022/06/13 05:22:02;;;;;;;13.95;8.55;;;;;;;21.64;71.14;101195.63;4975451;28;20073;-91
2022/06/13 05:24:34;;;;;;;14.52;8.20;;;;;;;21.59;71.23;101192.53;4972458;28;20023;-91
2022/06/13 05:27:01;;;;;;;;;;;;;;;21.89;70.89;101194.28;4956972;28;20496;-89
2022/06/13 05:29:28;;;;;;;15.95;9.65;;;;;;;21.76;71.40;101196.34;4973392;28;19928;-86
2022/06/13 05:31:54;;;;;;;16.30;9.90;;;;;;;21.59;71.62;101191.69;4970315;28;20511;-83
2022/06/13 05:34:40;;;;;;;14.85;10.43;;;;;;;21.44;71.90;101202.59;4944510;28;20031;-90
2022/06/13 05:37:06;;;;;;;14.52;8.88;;;;;;;21.54;72.29;101183.38;4972991;28;20035;-86
2022/06/13 05:39:34;;;;;;;21.60;10.00;;;;;;;21.66;71.92;101192.84;4974843;28;20058;-91
2022/06/13 05:41:59;;;;;;;16.38;9.48;;;;;;;21.78;71.08;101189.13;4970853;28;20062;-89
2022/06/13 05:44:25;;;;;;;17.00;9.98;;;;;;;21.76;71.09;101167.38;4947645;28;20441;-85
2022/06/13 05:46:50;;;;;;;19.98;10.50;;;;;;;21.77;70.83;101169.88;4966977;28;20404;-86
2022/06/13 05:49:17;;;;;;;18.92;12.18;;;;;;;21.84;71.58;101193.06;4988521;28;20085;-93
2022/06/13 05:51:42;;;;;;;54.38;31.35;;;;;;;21.85;72.58;101203.44;4941531;28;20090;-90
2022/06/13 05:54:09;;;;;;;18.17;10.68;;;;;;;21.81;72.49;101188.88;4965847;28;20038;-90
2022/06/13 05:56:35;;;;;;;17.45;11.50;;;;;;;21.94;72.37;101197.38;4939076;29;20030;-87
2022/06/13 05:59:01;;;;;;;19.27;13.55;;;;;;;22.00;71.67;101199.44;4955370;28;20138;-87
2022/06/13 06:01:26;;;;;;;19.55;11.38;;;;;;;22.00;71.65;101191.56;4954063;28;20031;-86
2022/06/13 06:03:52;;;;;;;16.55;11.45;;;;;;;22.03;72.35;101188.66;4976353;28;20085;-86
2022/06/13 06:06:25;;;;;;;15.82;10.00;;;;;;;22.20;72.06;101195.09;4941802;28;20077;-88
2022/06/13 06:08:51;;;;;;;20.27;12.20;;;;;;;22.14;71.37;101171.94;4938631;29;20019;-88
2022/06/13 06:11:16;;;;;;;32.67;18.98;;;;;;;22.21;72.01;101174.84;4969367;28;20038;-87
2022/06/13 06:13:42;;;;;;;17.23;10.55;;;;;;;22.36;71.12;101184.03;4988717;28;20035;-91
2022/06/13 06:16:10;;;;;;;21.10;13.30;;;;;;;22.36;71.67;101186.66;4970657;28;20062;-90
2022/06/13 06:18:35;;;;;;;14.27;8.48;;;;;;;22.43;71.29;101195.69;4977145;28;20434;-89
2022/06/13 06:21:01;;;;;;;14.13;10.13;;;;;;;22.50;71.21;101198.59;4961802;28;20033;-83
2022/06/13 06:23:26;;;;;;;34.58;21.67;;;;;;;22.79;70.67;101199.41;4961549;28;20038;-87
2022/06/13 06:25:54;;;;;;;17.70;9.73;;;;;;;22.99;69.65;101208.16;4956788;28;20447;-88
2022/06/13 06:28:24;;;;;;;13.57;10.10;;;;;;;23.03;70.03;101212.22;4956440;28;20045;-91
2022/06/13 06:30:51;;;;;;;12.10;9.98;;;;;;;23.03;70.20;101200.81;4954644;28;20038;-88
2022/06/13 06:33:16;;;;;;;19.17;13.32;;;;;;;23.04;70.02;101199.84;4988700;28;20109;-84
2022/06/13 06:35:42;;;;;;;14.60;8.95;;;;;;;23.20;70.32;101200.06;4956345;28;20069;-87
2022/06/13 06:38:07;;;;;;;21.10;12.93;;;;;;;23.08;69.08;101175.66;4956642;28;20109;-86
2022/06/13 06:40:33;;;;;;;41.08;30.35;;;;;;;23.33;69.71;101202.41;4968610;28;20414;-87
2022/06/13 06:42:58;;;;;;;27.17;18.80;;;;;;;23.29;68.70;101179.91;4945307;28;20571;-87
2022/06/13 06:45:25;;;;;;;34.38;24.35;;;;;;;23.36;67.86;101202.13;4974172;28;20038;-88
2022/06/13 06:47:51;;;;;;;23.80;16.25;;;;;;;23.43;67.30;101204.03;4955843;28;20027;-88
2022/06/13 06:50:18;;;;;;;16.48;10.73;;;;;;;23.44;68.22;101189.03;4972080;28;20030;-87
2022/06/13 06:52:44;;;;;;;15.50;10.63;;;;;;;23.70;67.30;101210.38;4951628;28;20554;-91
2022/06/13 07:00:43;;;;;;;13.13;9.65;;;;;;;23.88;65.11;101202.47;4985327;28;20126;-89
2022/06/13 07:03:08;;;;;;;15.98;9.35;;;;;;;23.99;65.79;101211.06;4971335;28;20121;-89
2022/06/13 07:05:34;;;;;;;11.07;7.25;;;;;;;23.97;65.03;101193.66;4971019;28;20034;-85
2022/06/13 07:07:59;;;;;;;10.52;7.38;;;;;;;23.94;63.17;101201.91;4972562;28;20072;-93
2022/06/13 07:10:25;;;;;;;9.35;6.50;;;;;;;24.03;62.83;101180.69;4955489;28;20142;-87
2022/06/13 07:12:50;;;;;;;8.90;7.03;;;;;;;24.11;60.31;101193.19;4938933;28;20034;-83
2022/06/13 07:15:16;;;;;;;11.20;7.18;;;;;;;24.19;62.17;101177.41;4971361;28;20057;-91
2022/06/13 07:17:41;;;;;;;20.75;14.52;;;;;;;24.22;62.07;101177.09;4969999;28;20062;-87
2022/06/13 07:20:08;;;;;;;12.18;7.47;;;;;;;24.29;62.93;101186.09;4960022;28;20050;-87
2022/06/13 07:22:34;;;;;;;19.02;14.35;;;;;;;24.38;60.67;101183.53;4972563;28;20042;-90
2022/06/13 07:24:59;;;;;;;14.35;8.43;;;;;;;24.49;61.11;101189.47;4973666;28;20714;-91
2022/06/13 07:27:25;;;;;;;9.40;6.85;;;;;;;24.64;61.19;101183.59;4970842;28;20035;-87
2022/06/13 07:29:51;;;;;;;8.07;6.75;;;;;;;24.80;60.84;101191.69;4953634;28;20031;-87
2022/06/13 07:32:19;;;;;;;8.50;7.07;;;;;;;24.87;60.79;101196.19;4986951;28;20038;-85
2022/06/13 07:34:45;;;;;;;9.77;7.75;;;;;;;24.77;61.34;101161.06;4954679;28;20062;-85
2022/06/13 07:37:12;;;;;;;10.23;7.70;;;;;;;24.94;59.87;101175.25;4985071;28;20027;-84
2022/06/13 07:39:38;;;;;;;17.15;11.70;;;;;;;25.06;59.87;101184.59;4970678;28;20042;-85
2022/06/13 07:42:04;;;;;;;12.20;6.93;;;;;;;25.15;58.67;101182.84;4950420;28;20027;-91
2022/06/13 07:44:36;;;;;;;10.48;7.57;;;;;;;25.28;58.49;101185.94;4942375;29;20023;-88
2022/06/13 07:47:01;;;;;;;13.43;7.18;;;;;;;25.40;58.99;101187.31;4940770;28;20034;-86
2022/06/13 07:49:27;;;;;;;11.38;6.13;;;;;;;25.32;57.18;101154.66;4949982;29;20027;-85
2022/06/13 07:51:52;;;;;;;7.40;6.68;;;;;;;25.51;57.00;101183.56;4974300;28;20048;-88
2022/06/13 07:54:18;;;;;;;11.23;7.57;;;;;;;25.65;57.82;101179.47;4950683;28;20504;-90
2022/06/13 07:56:44;;;;;;;9.95;6.53;;;;;;;25.76;55.36;101183.66;4954120;28;20185;-85
2022/06/13 07:59:16;;;;;;;12.15;9.00;;;;;;;25.86;57.03;101187.88;4969508;28;20533;-89
2022/06/13 08:01:42;;;;;;;6.72;5.55;;;;;;;25.89;54.19;101176.94;4993579;28;20503;-92
2022/06/13 08:04:08;;;;;;;8.13;6.60;;;;;;;25.97;56.03;101184.91;4940697;28;20035;-93
2022/06/13 08:06:34;;;;;;;8.73;6.15;;;;;;;26.18;55.33;101187.13;4954885;28;20117;-90
2022/06/13 08:08:59;;;;;;;10.45;6.65;;;;;;;26.20;56.39;101179.00;4969124;28;20456;-90
2022/06/13 08:11:35;;;;;;;9.45;6.22;;;;;;;26.34;55.26;101178.34;4983862;28;20056;-85
2022/06/13 08:14:00;;;;;;;8.38;6.70;;;;;;;26.44;54.90;101187.00;4956236;28;20488;-86
2022/06/13 08:16:26;;;;;;;8.60;6.13;;;;;;;26.57;54.96;101191.84;4933768;29;20041;-86
2022/06/13 08:18:52;;;;;;;9.63;6.10;;;;;;;26.56;54.78;101184.88;4923717;28;20062;-87
2022/06/13 08:21:17;;;;;;;12.52;6.35;;;;;;;26.68;54.50;101178.22;4985380;28;20484;-88
2022/06/13 08:23:43;;;;;;;8.38;6.22;;;;;;;26.63;54.13;101175.22;4985274;28;20035;-90
2022/06/13 08:26:09;;;;;;;14.35;7.03;;;;;;;26.73;53.74;101185.69;4950612;28;20051;-87
2022/06/13 08:28:35;;;;;;;20.67;14.23;;;;;;;26.73;54.32;101197.13;4950937;28;20027;-84
2022/06/13 08:31:11;;;;;;;8.80;6.30;;;;;;;26.69;52.96;101187.03;4939517;29;20502;-85
2022/06/13 08:33:37;;;;;;;12.10;6.55;;;;;;;26.84;53.65;101182.69;4959022;28;20077;-85
2022/06/13 08:36:04;;;;;;;10.13;5.65;;;;;;;27.06;53.76;101187.34;4954400;28;20403;-89
2022/06/13 08:38:30;;;;;;;14.55;6.20;;;;;;;27.05;52.11;101184.88;4960518;28;20065;-90
2022/06/13 08:40:58;;;;;;;8.07;5.95;;;;;;;27.06;53.05;101200.63;4953974;28;20436;-92
2022/06/13 08:43:45;;;;;;;8.23;6.53;;;;;;;26.96;52.46;101173.41;4934892;28;20505;-89
2022/06/13 08:46:16;;;;;;;8.43;6.32;;;;;;;27.13;51.83;101185.66;4963758;28;20118;-85
2022/06/13 08:48:44;;;;;;;8.63;6.43;;;;;;;27.15;51.11;101178.38;4950555;29;20134;-84
2022/06/13 08:51:15;;;;;;;7.00;5.80;;;;;;;27.41;51.44;101191.38;4950010;28;20114;-85
2022/06/13 08:53:57;;;;;;;10.98;6.88;;;;;;;27.66;51.25;101189.50;4954352;28;20031;-86
2022/06/13 08:56:24;;;;;;;8.98;5.85;;;;;;;27.77;49.68;101190.13;4982961;28;20026;-84
2022/06/13 08:58:59;;;;;;;7.00;6.30;;;;;;;27.89;49.42;101183.41;4953886;28;20101;-85
2022/06/13 09:01:35;;;;;;;7.68;5.40;;;;;;;27.91;49.59;101184.06;4953210;28;20027;-88
2022/06/13 09:04:03;;;;;;;7.72;5.53;;;;;;;27.98;47.62;101183.19;4967339;28;20026;-86
2022/06/13 09:06:36;;;;;;;8.20;6.13;;;;;;;27.84;48.28;101175.16;4963223;28;20504;-87
2022/06/13 09:09:10;;;;;;;22.75;20.25;;;;;;;28.04;48.66;101187.00;4969746;28;20027;-88
2022/06/13 09:11:47;;;;;;;12.57;10.25;;;;;;;28.04;47.22;101165.72;4936143;28;20053;-92
2022/06/13 09:14:20;;;;;;;9.57;7.25;;;;;;;27.92;47.81;101180.41;4947933;29;20572;-89
2022/06/13 09:17:13;;;;;;;8.95;7.00;;;;;;;28.20;47.67;101180.72;4952154;28;20023;-92
2022/06/13 09:20:01;;;;;;;6.28;5.07;;;;;;;28.40;46.04;101181.94;4949792;28;20047;-89
2022/06/13 09:22:43;;;;;;;5.88;5.20;;;;;;;28.47;45.50;101182.06;4953610;28;20054;-92
2022/06/13 09:25:14;;;;;;;5.32;4.82;;;;;;;28.58;46.12;101178.97;4949969;28;20115;-88
2022/06/13 09:27:55;;;;;;;8.75;5.53;;;;;;;28.73;45.98;101187.84;4969259;28;20488;-91
2022/06/13 09:30:24;;;;;;;7.78;5.18;;;;;;;28.78;45.33;101185.44;4955710;28;20034;-90
2022/06/13 09:32:53;;;;;;;9.27;5.57;;;;;;;28.95;44.54;101185.34;4965637;28;20042;-87
2022/06/13 09:35:21;;;;;;;6.53;5.18;;;;;;;28.91;43.76;101176.03;4950359;29;20028;-88
2022/06/13 09:38:05;;;;;;;6.88;5.05;;;;;;;29.18;45.63;101180.75;4962859;28;20558;-86
2022/06/13 09:40:39;;;;;;;9.93;5.30;;;;;;;29.39;44.23;101186.16;4970262;28;20035;-87
2022/06/13 09:43:32;;;;;;;7.13;5.40;;;;;;;29.28;44.50;101154.66;4944556;28;20053;-90
2022/06/13 09:46:15;;;;;;;6.53;5.40;;;;;;;29.61;43.51;101170.31;4939820;28;20039;-88
2022/06/13 09:48:40;;;;;;;11.15;6.10;;;;;;;29.68;44.12;101171.19;4955669;28;20043;-87
2022/06/13 09:51:37;;;;;;;9.10;5.03;;;;;;;29.76;44.00;101141.75;4974258;28;20457;-88
2022/06/13 09:54:12;;;;;;;6.18;5.57;;;;;;;30.01;44.88;101170.75;4971823;28;20031;-88
2022/06/13 09:56:46;;;;;;;5.93;5.35;;;;;;;29.87;42.61;101170.59;4971338;28;20073;-86
2022/06/13 09:59:29;;;;;;;6.55;4.93;;;;;;;29.82;42.20;101156.19;4969821;28;20027;-89
2022/06/13 10:02:13;;;;;;;7.40;5.30;;;;;;;29.97;42.12;101149.78;4988763;28;20042;-90
2022/06/13 10:05:04;;;;;;;5.97;4.88;;;;;;;30.09;42.26;101157.31;4973095;28;20027;-90
2022/06/13 10:07:48;;;;;;;8.15;5.80;;;;;;;30.19;42.54;101148.00;4955818;28;20468;-87
2022/06/13 10:10:19;;;;;;;7.47;5.60;;;;;;;30.27;43.04;101139.00;4963723;28;20105;-90
2022/06/13 10:12:50;;;;;;;6.97;5.73;;;;;;;30.55;42.49;101163.06;4972816;28;20054;-90
2022/06/13 10:15:33;;;;;;;6.60;5.90;;;;;;;30.21;40.49;101137.13;4972510;28;20042;-87
2022/06/13 10:21:14;;;;;;;7.10;5.15;;;;;;;30.65;40.88;101152.91;4965214;28;20101;-91
2022/06/13 10:23:58;;;;;;;5.93;5.13;;;;;;;30.47;41.11;101150.69;4974140;28;20027;-91
2022/06/13 10:26:23;;;;;;;10.00;7.25;;;;;;;30.38;43.25;101149.16;4974157;28;20038;-92
2022/06/13 10:29:07;;;;;;;6.45;4.93;;;;;;;30.26;42.61;101142.69;4970784;28;20088;-87
2022/06/13 10:31:52;;;;;;;7.43;5.20;;;;;;;30.50;42.14;101134.31;4966873;28;20055;-88
2022/06/13 10:34:27;;;;;;;15.02;12.50;;;;;;;30.80;43.16;101136.81;4957755;28;20035;-88
2022/06/13 10:37:29;;;;;;;5.93;4.63;;;;;;;30.84;41.57;101135.38;4957121;28;20499;-95
2022/06/13 10:39:56;;;;;;;6.68;5.38;;;;;;;30.87;41.89;101121.63;4977630;28;20035;-90
2022/06/13 10:42:24;;;;;;;5.57;4.70;;;;;;;30.86;40.50;101111.16;4968160;28;20042;-92
2022/06/13 10:44:50;;;;;;;6.22;5.10;;;;;;;30.84;40.14;101125.53;4977572;28;20110;-85
2022/06/13 10:47:26;;;;;;;6.38;4.88;;;;;;;30.53;41.26;101119.72;4956436;28;20019;-90
2022/06/13 10:50:00;;;;;;;6.70;5.13;;;;;;;30.76;40.50;101116.84;4955778;28;20551;-93
2022/06/13 10:52:29;;;;;;;13.43;10.90;;;;;;;30.87;41.07;101091.44;4941483;28;20030;-92
2022/06/13 10:54:56;;;;;;;25.15;22.55;;;;;;;30.73;40.90;101087.84;4971071;28;20512;-92
2022/06/13 10:57:37;;;;;;;7.97;5.82;;;;;;;30.91;39.79;101101.53;4963690;28;20078;-93
2022/06/13 11:00:19;;;;;;;7.80;5.70;;;;;;;30.84;39.40;101095.31;4974648;28;20030;-88
2022/06/13 11:02:45;;;;;;;7.40;5.35;;;;;;;30.81;40.82;101093.06;4941217;28;20066;-90
2022/06/13 11:05:22;;;;;;;5.55;4.95;;;;;;;31.07;39.72;101087.00;4955971;28;20066;-84
2022/06/13 11:07:53;;;;;;;5.50;4.65;;;;;;;31.03;39.51;101086.59;4977277;28;20031;-90
2022/06/13 11:10:33;;;;;;;6.07;5.03;;;;;;;30.97;39.63;101086.53;4956083;28;20030;-85
2022/06/13 11:12:59;;;;;;;5.78;5.15;;;;;;;30.93;42.03;101082.63;4973081;28;20035;-86
2022/06/13 11:24:39;;;;;;;4.80;4.25;;;;;;;31.34;38.27;101061.25;4952875;29;20042;-90
2022/06/13 11:30:29;;;;;;;5.88;4.35;;;;;;;31.65;37.30;101056.19;4938691;29;20812;-88
2022/06/13 11:33:03;;;;;;;5.55;4.63;;;;;;;31.35;38.24;101057.56;4968984;28;20058;-87
2022/06/13 11:35:36;;;;;;;6.45;4.60;;;;;;;31.32;38.22;101055.28;4954560;28;20062;-84
2022/06/13 11:38:16;;;;;;;5.65;4.60;;;;;;;31.54;38.60;101056.78;4970799;28;20026;-86
2022/06/13 11:40:43;;;;;;;7.32;4.32;;;;;;;31.72;37.91;101058.06;4960755;28;20614;-88
2022/06/13 11:43:19;;;;;;;25.50;20.75;;;;;;;31.76;37.84;101041.44;4945694;28;20513;-89
2022/06/13 11:45:54;;;;;;;10.32;8.25;;;;;;;31.86;36.27;101041.06;4932295;29;20028;-85
2022/06/13 11:48:19;;;;;;;5.68;4.65;;;;;;;31.79;38.58;101032.19;4949786;29;20484;-90
2022/06/13 11:50:45;;;;;;;6.72;4.22;;;;;;;31.86;36.61;101043.72;4951097;29;20114;-90
2022/06/13 11:55:57;;;;;;;4.43;4.03;;;;;;;31.87;35.77;101040.84;4951367;29;20066;-87
2022/06/13 11:58:25;;;;;;;5.03;4.53;;;;;;;32.03;34.68;101039.59;4951562;29;20110;-90
2022/06/13 12:00:52;;;;;;;5.90;4.85;;;;;;;31.89;32.52;101021.91;4935566;29;20097;-85
2022/06/13 12:03:23;;;;;;;5.78;4.68;;;;;;;31.92;31.87;101033.00;4948051;29;20110;-89
2022/06/13 12:05:52;;;;;;;5.65;4.40;;;;;;;31.97;33.20;101027.06;4951066;29;20121;-88
2022/06/13 12:08:19;;;;;;;5.30;4.45;;;;;;;32.05;33.72;101026.81;4950171;29;20090;-83